createdAt,value
2019-01-24T00:01:45.658Z,11.60
2019-01-24T00:04:51.697Z,5.05
2019-01-24T00:07:57.948Z,4.95
2019-01-24T00:11:04.225Z,6.47
2019-01-24T00:14:10.226Z,5.53
2019-01-24T00:17:16.416Z,6.28
2019-01-24T00:20:22.796Z,6.97
2019-01-24T00:23:28.850Z,6.62
2019-01-24T00:26:34.725Z,5.58
2019-01-24T00:29:40.664Z,7.65
2019-01-24T00:32:46.744Z,6.40
2019-01-24T00:35:52.724Z,5.33
2019-01-24T00:38:58.455Z,7.45
2019-01-24T00:42:04.440Z,6.50
2019-01-24T00:45:10.265Z,8.20
2019-01-24T00:48:16.399Z,5.07
2019-01-24T00:51:22.171Z,7.37
2019-01-24T00:54:28.360Z,9.20
2019-01-24T00:57:34.290Z,5.63
2019-01-24T01:00:40.235Z,5.50
2019-01-24T01:03:45.907Z,6.53
2019-01-24T01:06:52.091Z,7.10
2019-01-24T01:09:57.942Z,3.97
2019-01-24T01:13:04.019Z,9.67
2019-01-24T01:16:10.050Z,15.72
2019-01-24T01:19:15.733Z,10.70
2019-01-24T01:22:21.657Z,7.35
2019-01-24T01:25:27.756Z,10.60
2019-01-24T01:28:33.676Z,7.00
2019-01-24T01:31:39.772Z,5.28
2019-01-24T01:34:45.914Z,5.12
2019-01-24T01:37:52.011Z,7.83
2019-01-24T01:40:57.886Z,5.65
2019-01-24T01:44:03.583Z,5.20
2019-01-24T01:47:09.467Z,7.80
2019-01-24T01:50:17.976Z,8.40
2019-01-24T01:53:24.148Z,7.85
2019-01-24T01:56:30.289Z,6.90
2019-01-24T01:59:36.508Z,5.92
2019-01-24T02:02:42.410Z,5.72
2019-01-24T02:05:48.327Z,7.40
2019-01-24T02:08:54.347Z,6.87
2019-01-24T02:12:00.420Z,3.97
2019-01-24T02:15:09.275Z,9.83
2019-01-24T02:18:15.578Z,4.72
2019-01-24T02:21:21.507Z,4.07
2019-01-24T02:24:27.523Z,3.55
2019-01-24T02:27:33.287Z,3.20
2019-01-24T02:30:39.324Z,6.25
2019-01-24T02:33:45.307Z,4.83
2019-01-24T02:36:51.252Z,3.57
2019-01-24T02:39:57.123Z,5.55
2019-01-24T02:43:02.849Z,6.07
2019-01-24T02:46:08.726Z,5.37
2019-01-24T02:49:14.779Z,5.70
2019-01-24T02:52:20.895Z,7.72
2019-01-24T02:55:26.593Z,5.50
2019-01-24T02:58:32.687Z,9.70
2019-01-24T03:01:38.633Z,6.22
2019-01-24T03:04:44.685Z,5.50
2019-01-24T03:07:51.462Z,6.53
2019-01-24T03:10:57.421Z,5.53
2019-01-24T03:14:03.505Z,6.77
2019-01-24T03:17:09.642Z,9.73
2019-01-24T03:20:16.471Z,6.90
2019-01-24T03:23:22.684Z,5.83
2019-01-24T03:26:28.562Z,9.38
2019-01-24T03:29:34.295Z,6.53
2019-01-24T03:32:40.282Z,4.77
2019-01-24T03:35:46.339Z,5.80
2019-01-24T03:38:52.416Z,10.47
2019-01-24T03:41:58.791Z,6.33
2019-01-24T03:45:05.622Z,6.23
2019-01-24T03:48:11.612Z,7.07
2019-01-24T03:51:17.856Z,8.43
2019-01-24T03:54:23.744Z,7.63
2019-01-24T03:57:29.968Z,6.20
2019-01-24T04:00:36.268Z,4.73
2019-01-24T04:03:41.992Z,5.40
2019-01-24T04:06:47.962Z,7.40
2019-01-24T04:09:53.821Z,7.50
2019-01-24T04:12:59.719Z,6.10
2019-01-24T04:16:05.696Z,6.73
2019-01-24T04:19:11.866Z,6.67
2019-01-24T04:22:17.803Z,9.80
2019-01-24T04:25:23.830Z,5.37
2019-01-24T04:28:33.913Z,8.27
2019-01-24T04:31:39.924Z,7.57
2019-01-24T04:34:45.820Z,7.67
2019-01-24T04:37:51.857Z,6.47
2019-01-24T04:40:57.828Z,9.07
2019-01-24T04:44:04.057Z,7.97
2019-01-24T04:47:09.863Z,7.70
2019-01-24T04:50:16.968Z,9.80
2019-01-24T04:53:22.801Z,10.43
2019-01-24T04:56:28.643Z,8.50
2019-01-24T04:59:34.619Z,8.90
2019-01-24T05:02:40.817Z,9.50
2019-01-24T05:05:46.513Z,8.20
2019-01-24T05:08:52.510Z,8.20
2019-01-24T05:11:58.342Z,8.40
2019-01-24T05:15:11.463Z,8.10
2019-01-24T05:18:18.056Z,8.33
2019-01-24T05:21:23.942Z,8.97
2019-01-24T05:24:29.751Z,7.80
2019-01-24T05:27:35.732Z,8.17
2019-01-24T05:30:41.657Z,5.28
2019-01-24T05:33:47.668Z,5.37
2019-01-24T05:36:53.544Z,7.35
2019-01-24T05:39:59.227Z,8.33
2019-01-24T05:43:05.367Z,7.58
2019-01-24T05:46:11.372Z,7.92
2019-01-24T05:49:17.450Z,7.17
2019-01-24T05:52:23.283Z,9.53
2019-01-24T05:55:29.201Z,9.43
2019-01-24T05:58:35.134Z,10.70
2019-01-24T06:01:41.967Z,10.30
2019-01-24T06:04:47.884Z,13.43
2019-01-24T06:07:54.059Z,6.90
2019-01-24T06:11:00.198Z,8.93
2019-01-24T06:14:06.559Z,6.33
2019-01-24T06:17:12.449Z,13.43
2019-01-24T06:20:18.169Z,8.47
2019-01-24T06:23:24.324Z,10.98
2019-01-24T06:26:30.710Z,11.07
2019-01-24T06:29:36.790Z,9.73
2019-01-24T06:32:42.700Z,7.47
2019-01-24T06:35:49.103Z,12.87
2019-01-24T06:38:55.126Z,13.90
2019-01-24T06:42:01.268Z,8.13
2019-01-24T06:45:09.680Z,8.20
2019-01-24T06:48:15.699Z,10.23
2019-01-24T06:51:21.850Z,13.87
2019-01-24T06:54:28.146Z,13.27
2019-01-24T06:57:34.095Z,15.80
2019-01-24T07:00:41.282Z,13.83
2019-01-24T07:03:47.344Z,10.93
2019-01-24T07:06:53.190Z,10.20
2019-01-24T07:09:59.063Z,9.40
2019-01-24T07:13:04.906Z,12.23
2019-01-24T07:16:11.582Z,12.83
2019-01-24T07:19:17.666Z,20.80
2019-01-24T07:22:23.912Z,14.77
2019-01-24T07:25:30.463Z,145.47
2019-01-24T07:28:36.556Z,108.47
2019-01-24T07:31:42.690Z,103.00
2019-01-24T07:34:48.887Z,120.77
2019-01-24T07:37:54.801Z,161.43
2019-01-24T07:41:00.876Z,39.77
2019-01-24T07:44:06.962Z,37.93
2019-01-24T07:47:13.150Z,58.57
2019-01-24T07:50:19.290Z,57.53
2019-01-24T07:53:25.221Z,40.60
2019-01-24T07:56:31.333Z,29.63
2019-01-24T07:59:37.268Z,26.77
2019-01-24T08:02:43.431Z,39.27
2019-01-24T08:05:49.547Z,37.60
2019-01-24T08:08:55.567Z,39.93
2019-01-24T08:12:01.620Z,30.23
2019-01-24T08:15:09.284Z,35.90
2019-01-24T08:18:15.331Z,36.67
2019-01-24T08:21:21.555Z,39.87
2019-01-24T08:24:27.620Z,35.40
2019-01-24T08:27:33.852Z,39.97
2019-01-24T08:30:39.938Z,39.37
2019-01-24T08:33:45.880Z,38.57
2019-01-24T08:36:52.063Z,44.23
2019-01-24T08:39:58.374Z,34.03
2019-01-24T08:43:04.295Z,29.23
2019-01-24T08:46:10.228Z,39.23
2019-01-24T08:49:16.419Z,37.80
2019-01-24T08:52:22.549Z,32.17
2019-01-24T08:55:36.689Z,31.70
2019-01-24T08:58:42.608Z,77.47
2019-01-24T09:01:48.656Z,51.93
2019-01-24T09:04:54.492Z,46.70
2019-01-24T09:08:00.773Z,50.07
2019-01-24T09:11:06.854Z,33.93
2019-01-24T09:14:12.768Z,33.20
2019-01-24T09:17:18.954Z,30.97
2019-01-24T09:20:25.129Z,33.53
2019-01-24T09:23:31.202Z,29.50
2019-01-24T09:26:36.929Z,24.00
2019-01-24T09:29:42.898Z,19.63
2019-01-24T09:32:49.895Z,15.63
2019-01-24T09:35:55.985Z,19.63
2019-01-24T09:39:02.094Z,21.27
2019-01-24T09:42:08.070Z,16.47
2019-01-24T09:45:21.792Z,19.10
2019-01-24T09:48:27.771Z,18.10
2019-01-24T09:51:33.737Z,16.67
2019-01-24T09:54:39.601Z,20.53
2019-01-24T09:57:45.442Z,21.75
2019-01-24T10:00:51.167Z,16.82
2019-01-24T10:03:57.174Z,18.97
2019-01-24T10:07:03.182Z,17.90
2019-01-24T10:10:12.363Z,16.53
2019-01-24T10:13:18.488Z,15.17
2019-01-24T10:16:24.718Z,15.38
2019-01-24T10:19:30.914Z,20.02
2019-01-24T10:22:36.801Z,16.45
2019-01-24T10:25:42.738Z,14.87
2019-01-24T10:28:48.718Z,18.52
2019-01-24T10:31:54.774Z,15.93
2019-01-24T10:35:00.847Z,15.70
2019-01-24T10:38:06.886Z,15.15
2019-01-24T10:41:13.069Z,15.45
2019-01-24T10:44:19.218Z,12.98
2019-01-24T10:47:25.403Z,11.38
2019-01-24T10:50:31.776Z,14.40
2019-01-24T10:53:37.710Z,13.45
2019-01-24T10:56:43.581Z,14.38
2019-01-24T10:59:49.525Z,10.70
2019-01-24T11:02:56.057Z,16.15
2019-01-24T11:06:02.278Z,10.58
2019-01-24T11:09:10.561Z,8.03
2019-01-24T11:12:16.940Z,7.30
2019-01-24T11:15:23.751Z,10.90
2019-01-24T11:18:29.469Z,12.10
2019-01-24T11:21:35.464Z,8.43
2019-01-24T11:24:41.211Z,9.85
2019-01-24T11:27:47.469Z,11.95
2019-01-24T11:30:53.514Z,10.28
2019-01-24T11:33:59.395Z,7.00
2019-01-24T11:37:05.378Z,7.33
2019-01-24T11:40:13.774Z,9.53
2019-01-24T11:43:19.824Z,10.15
2019-01-24T11:46:25.902Z,6.65
2019-01-24T11:49:31.819Z,6.90
2019-01-24T11:52:37.949Z,7.60
2019-01-24T11:55:44.072Z,6.65
2019-01-24T11:58:50.054Z,7.83
2019-01-24T12:01:56.637Z,7.67
2019-01-24T12:05:02.710Z,7.55
2019-01-24T12:08:09.271Z,8.28
2019-01-24T12:11:15.091Z,7.03
2019-01-24T12:14:21.080Z,8.48
2019-01-24T12:17:27.541Z,7.92
2019-01-24T12:20:34.087Z,9.33
2019-01-24T12:23:39.970Z,8.20
2019-01-24T12:26:46.140Z,6.75
2019-01-24T12:29:51.979Z,5.15
2019-01-24T12:32:58.366Z,7.92
2019-01-24T12:36:04.590Z,5.53
2019-01-24T12:39:10.832Z,6.37
2019-01-24T12:42:17.136Z,6.30
2019-01-24T12:45:25.382Z,5.78
2019-01-24T12:48:31.205Z,5.47
2019-01-24T12:51:38.620Z,5.47
2019-01-24T12:54:44.979Z,4.67
2019-01-24T12:57:51.153Z,4.15
2019-01-24T13:00:57.240Z,3.17
2019-01-24T13:04:03.194Z,4.72
2019-01-24T13:07:09.157Z,7.42
2019-01-24T13:10:17.432Z,4.42
2019-01-24T13:13:23.352Z,6.28
2019-01-24T13:16:29.038Z,3.15
2019-01-24T13:19:35.021Z,8.08
2019-01-24T13:22:41.305Z,8.23
2019-01-24T13:25:47.381Z,4.00
2019-01-24T13:28:53.079Z,4.97
2019-01-24T13:31:59.267Z,5.22
2019-01-24T13:35:05.815Z,3.90
2019-01-24T13:38:12.110Z,6.97
2019-01-24T13:41:18.265Z,3.70
2019-01-24T13:44:24.337Z,4.05
2019-01-24T13:47:30.063Z,6.08
2019-01-24T13:50:36.054Z,6.65
2019-01-24T13:53:41.905Z,7.85
2019-01-24T13:56:47.968Z,6.42
2019-01-24T13:59:54.255Z,5.15
2019-01-24T14:03:42.528Z,3.15
2019-01-24T14:06:48.937Z,5.85
2019-01-24T14:09:54.813Z,5.85
2019-01-24T14:13:02.116Z,5.72
2019-01-24T14:16:07.974Z,6.33
2019-01-24T14:19:14.250Z,18.87
2019-01-24T14:22:20.214Z,12.10
2019-01-24T14:25:26.252Z,11.45
2019-01-24T14:28:32.287Z,12.15
2019-01-24T14:31:38.381Z,13.85
2019-01-24T14:34:44.537Z,11.83
2019-01-24T14:37:50.813Z,10.00
2019-01-24T14:40:56.643Z,11.68
2019-01-24T14:44:02.738Z,10.08
2019-01-24T14:47:08.859Z,11.45
2019-01-24T14:50:17.930Z,15.20
2019-01-24T14:53:23.757Z,10.78
2019-01-24T14:56:29.759Z,14.38
2019-01-24T14:59:35.824Z,14.58
2019-01-24T15:02:41.897Z,16.67
2019-01-24T15:05:47.796Z,5.95
2019-01-24T15:08:54.082Z,8.10
2019-01-24T15:12:00.150Z,11.68
2019-01-24T15:15:07.109Z,11.88
2019-01-24T15:18:13.081Z,7.58
2019-01-24T15:21:19.458Z,12.82
2019-01-24T15:24:25.422Z,9.75
2019-01-24T15:27:31.459Z,9.45
2019-01-24T15:30:37.440Z,16.32
2019-01-24T15:33:43.479Z,17.42
2019-01-24T15:36:49.606Z,11.68
2019-01-24T15:39:55.557Z,11.83
2019-01-24T15:43:02.159Z,11.50
2019-01-24T15:46:08.535Z,8.23
2019-01-24T15:49:14.444Z,7.95
2019-01-24T15:52:20.456Z,10.78
2019-01-24T15:55:26.643Z,11.93
2019-01-24T15:58:32.484Z,8.60
2019-01-24T16:01:38.368Z,9.88
2019-01-24T16:04:44.613Z,14.18
2019-01-24T16:07:50.511Z,14.75
2019-01-24T16:10:56.271Z,5.03
2019-01-24T16:14:02.192Z,6.85
2019-01-24T16:17:08.066Z,13.93
2019-01-24T16:20:17.441Z,8.63
2019-01-24T16:23:23.606Z,10.05
2019-01-24T16:26:29.506Z,8.33
2019-01-24T16:29:35.590Z,9.53
2019-01-24T16:32:41.549Z,7.08
2019-01-24T16:35:47.619Z,8.98
2019-01-24T16:38:53.691Z,11.65
2019-01-24T16:41:59.761Z,10.98
2019-01-24T16:45:09.250Z,10.20
2019-01-24T16:48:15.104Z,8.95
2019-01-24T16:51:21.682Z,8.35
2019-01-24T16:54:27.846Z,8.30
2019-01-24T16:57:33.952Z,9.28
2019-01-24T17:00:55.540Z,8.85
2019-01-24T17:04:01.534Z,14.03
2019-01-24T17:07:07.569Z,11.50
2019-01-24T17:10:16.023Z,8.85
2019-01-24T17:13:21.937Z,11.88
2019-01-24T17:16:27.710Z,10.15
2019-01-24T17:19:33.902Z,12.15
2019-01-24T17:22:39.760Z,10.85
2019-01-24T17:25:45.770Z,14.38
2019-01-24T17:28:52.004Z,12.53
2019-01-24T17:31:58.438Z,11.10
2019-01-24T17:35:04.886Z,11.83
2019-01-24T17:38:11.371Z,13.83
2019-01-24T17:41:17.423Z,13.10
2019-01-24T17:44:23.600Z,11.60
2019-01-24T17:47:30.107Z,12.70
2019-01-24T17:50:36.428Z,13.15
2019-01-24T17:53:42.596Z,12.88
2019-01-24T17:56:48.457Z,8.78
2019-01-24T17:59:54.402Z,62.70
2019-01-24T18:03:00.736Z,53.05
2019-01-24T18:06:07.234Z,69.53
2019-01-24T18:09:13.130Z,63.87
2019-01-24T18:12:19.098Z,59.30
2019-01-24T18:15:30.151Z,43.68
2019-01-24T18:18:36.134Z,38.40
2019-01-24T18:21:42.743Z,63.20
2019-01-24T18:24:49.335Z,46.77
2019-01-24T18:27:55.608Z,43.58
2019-01-24T18:31:01.679Z,45.95
2019-01-24T18:34:07.931Z,33.88
2019-01-24T18:37:14.229Z,27.75
2019-01-24T18:40:21.827Z,27.70
2019-01-24T18:43:28.885Z,31.62
2019-01-24T18:46:34.796Z,27.85
2019-01-24T18:49:40.830Z,26.95
2019-01-24T18:52:48.012Z,33.28
2019-01-24T18:55:54.266Z,23.77
2019-01-24T18:59:00.548Z,26.73
2019-01-24T19:02:06.711Z,48.70
2019-01-24T19:05:13.593Z,58.10
2019-01-24T19:08:19.664Z,53.38
2019-01-24T19:11:25.637Z,52.95
2019-01-24T19:14:31.376Z,50.40
2019-01-24T19:17:37.543Z,41.33
2019-01-24T19:20:43.638Z,54.13
2019-01-24T19:23:49.738Z,127.85
2019-01-24T19:26:56.031Z,78.00
2019-01-24T19:30:01.975Z,40.88
2019-01-24T19:33:07.989Z,38.50
2019-01-24T19:36:13.886Z,50.17
2019-01-24T19:39:19.990Z,42.48
2019-01-24T19:42:26.335Z,43.98
2019-01-24T19:45:32.400Z,40.83
2019-01-24T19:48:38.471Z,33.45
2019-01-24T19:51:44.522Z,28.07
2019-01-24T19:54:50.289Z,21.12
2019-01-24T19:57:56.824Z,25.52
2019-01-24T20:01:03.117Z,47.53
2019-01-24T20:04:09.612Z,52.13
2019-01-24T20:07:15.681Z,48.65
2019-01-24T20:10:23.068Z,55.65
2019-01-24T20:13:29.060Z,34.38
2019-01-24T20:16:35.024Z,38.85
2019-01-24T20:19:41.067Z,44.05
2019-01-24T20:22:47.522Z,38.15
2019-01-24T20:25:53.922Z,23.67
2019-01-24T20:29:00.011Z,27.55
2019-01-24T20:32:06.030Z,17.35
2019-01-24T20:35:24.509Z,23.87
2019-01-24T20:38:30.255Z,83.12
2019-01-24T20:41:36.258Z,30.65
2019-01-24T20:44:42.115Z,29.98
2019-01-24T20:47:48.185Z,29.75
2019-01-24T20:50:55.112Z,51.53
2019-01-24T20:54:01.377Z,51.53
2019-01-24T20:57:07.350Z,42.67
2019-01-24T21:00:16.229Z,38.58
2019-01-24T21:03:22.578Z,156.30
2019-01-24T21:06:28.560Z,34.38
2019-01-24T21:09:34.507Z,16.77
2019-01-24T21:12:40.547Z,36.38
2019-01-24T21:15:46.865Z,213.28
2019-01-24T21:18:52.666Z,43.70
2019-01-24T21:21:58.759Z,43.90
2019-01-24T21:25:06.456Z,44.90
2019-01-24T21:28:12.545Z,78.30
2019-01-24T21:31:18.766Z,212.45
2019-01-24T21:34:24.951Z,166.32
2019-01-24T21:37:30.889Z,110.52
2019-01-24T21:40:37.122Z,272.95
2019-01-24T21:43:43.205Z,197.00
2019-01-24T21:46:49.336Z,402.52
2019-01-24T21:49:55.748Z,152.38
2019-01-24T21:53:02.438Z,88.07
2019-01-24T21:56:08.436Z,21.68
2019-01-24T21:59:14.343Z,83.72
2019-01-24T22:02:20.427Z,37.45
2019-01-24T22:05:36.644Z,46.83
2019-01-24T22:08:42.853Z,51.00
2019-01-24T22:11:48.519Z,114.35
2019-01-24T22:14:54.704Z,145.82
2019-01-24T22:18:01.677Z,44.27
2019-01-24T22:21:08.052Z,32.70
2019-01-24T22:24:14.092Z,34.58
2019-01-24T22:27:20.201Z,65.28
2019-01-24T22:30:30.681Z,23.07
2019-01-24T22:33:36.686Z,21.12
2019-01-24T22:36:42.979Z,19.70
2019-01-24T22:39:48.904Z,39.25
2019-01-24T22:42:54.945Z,72.03
2019-01-24T22:46:00.837Z,123.65
2019-01-24T22:49:07.019Z,36.93
2019-01-24T22:52:12.955Z,16.90
2019-01-24T22:55:19.399Z,17.75
2019-01-24T22:58:25.406Z,129.20
2019-01-24T23:01:45.730Z,19.92
2019-01-24T23:04:51.540Z,59.50
2019-01-24T23:07:57.735Z,286.30
2019-01-24T23:11:03.886Z,56.42
2019-01-24T23:14:10.051Z,72.00
2019-01-24T23:17:15.944Z,352.52
2019-01-24T23:20:21.665Z,360.32
2019-01-24T23:23:27.524Z,99.87
2019-01-24T23:26:33.562Z,18.87
2019-01-24T23:29:39.826Z,23.42
2019-01-24T23:32:45.690Z,66.40
2019-01-24T23:35:51.870Z,29.23
2019-01-24T23:38:58.263Z,135.78
2019-01-24T23:42:04.610Z,42.17
2019-01-24T23:45:10.792Z,37.40
2019-01-24T23:48:16.542Z,55.78
2019-01-24T23:51:22.597Z,24.75
2019-01-24T23:54:28.458Z,33.95
2019-01-24T23:57:34.506Z,34.78
